Aviation Digital Data Service (ADDS)

Output produced by METARs form (1652 UTC 30 September 2016)
found at http://www.aviationweather.gov/adds/metars/
 
KLNS 301553Z COR 08014G20KT 3SM -RA OVC012 14/13 A3024 RMK AO2 RAB51 SLP241 P0000 T01390128
KLNS 301453Z 07012G21KT 10SM OVC013 14/13 A3024 RMK AO2 RAB38E47 SLP241 P0000 60000 T01390128 50002
KLNS 301353Z 07012KT 10SM OVC014 13/13 A3025 RMK AO2 RAE03 SLP243 P0000 T01330128
KLNS 301330Z 07012G20KT 10SM OVC013 13/12 A3024 RMK AO2 RAE03 P0000 T01330122
KLNS 301253Z COR 07013KT 5SM -RA BR OVC013 13/13 A3024 RMK AO2 RAB34 SLP240 P0000 T01280128
KLNS 301153Z 07011G21KT 10SM OVC013 13/12 A3024 RMK AO2 SLP239 60081 70134 T01330122 10139 20128 53004
KLNS 301053Z 07012KT 10SM OVC013 13/12 A3023 RMK AO2 SLP236 P0001 T01280122
KLNS 300953Z 03006KT 10SM OVC013 13/13 A3023 RMK AO2 RAE33 SLP237 P0003 T01280128
KLNS 300853Z AUTO 07013G20KT 5SM -RA BR BKN011 BKN017 OVC034 13/13 A3022 RMK AO2 PK WND 06026/0801 SLP235 P0022 60077 T01280128 55004
KLNS 300834Z AUTO 07015G22KT 6SM -RA BR FEW008 BKN013 OVC043 13/13 A3022 RMK AO2 PK WND 06026/0801 P0019 T01280128
KLNS 300824Z AUTO 06014KT 2SM +RA BR FEW009 BKN038 OVC045 13/13 A3021 RMK AO2 PK WND 06026/0801 P0018 T01280128
KLNS 300811Z AUTO 06016G23KT 2SM +RA BR OVC042 13/13 A3022 RMK AO2 PK WND 06026/0801 P0009 T01330128
KLNS 300753Z AUTO 06017G26KT 3SM +RA BR BKN046 OVC060 13/13 A3021 RMK AO2 PK WND 07030/0738 SLP230 P0045 T01330128
KLNS 300734Z AUTO 07018G26KT 2SM +RA BR FEW010 BKN033 OVC055 13/13 A3021 RMK AO2 PK WND 07026/0729 P0032 T01330133
KLNS 300723Z AUTO 08019G24KT 1 3/4SM +RA BR SCT010 OVC026 13/13 A3021 RMK AO2 P0022 T01330133
KLNS 300717Z AUTO 08015G22KT 2SM +RA BR BKN011 OVC021 13/13 A3021 RMK AO2 P0016 T01330133
KLNS 300703Z AUTO 08013G21KT 4SM +RA BR BKN011 BKN029 OVC110 14/14 A3021 RMK AO2 P0002 T01390139
KLNS 300653Z AUTO 08014G24KT 6SM RA BR SCT013 BKN095 OVC110 14/14 A3021 RMK AO2 SLP228 P0010 T01390139
KLNS 300626Z AUTO 08019G23KT 7SM RA SCT013 SCT050 BKN090 14/14 A3022 RMK AO2 P0006 T01390139
KLNS 300612Z AUTO 08016G24KT 7SM RA BKN014 BKN060 OVC100 14/14 A3023 RMK AO2 P0004 T01390139
KLNS 300553Z AUTO 09011G19KT 7SM RA OVC015 14/14 A3024 RMK AO2 SLP238 P0012 60031 T01390139 10156 20139 56008
KLNS 300525Z AUTO 08013KT 7SM RA OVC015 14/14 A3024 RMK AO2 P0008 T01390139
KLNS 300453Z AUTO 08011G18KT 6SM RA BR OVC013 14/14 A3024 RMK AO2 SLP239 P0007 T01440139 401720144
KLNS 300353Z AUTO 08011G20KT 10SM -RA OVC012 14/14 A3025 RMK AO2 SLP243 P0001 T01440139
KLNS 300253Z AUTO 09013G21KT 10SM -RA OVC012 15/14 A3026 RMK AO2 SLP246 P0003 60011 T01500144 51002
KLNS 300153Z 08009KT 10SM -RA OVC011 15/15 A3025 RMK AO2 SLP242 P0004 T01500150
KLNS 300053Z 07009G16KT 9SM RA OVC011 16/15 A3027 RMK AO2 SLP248 P0004 T01560150
KLNS 292353Z 08012KT 9SM -RA OVC011 15/15 A3025 RMK AO2 RAB12 SLP244 P0001 60001 T01500150 10167 20150 50001
KLNS 292253Z 09012KT 9SM OVC011 16/15 A3026 RMK AO2 RAB31E40 SLP246 P0000 T01560150
KLNS 292153Z 07013G23KT 6SM BR OVC011 16/15 A3025 RMK AO2 RAE47 SLP242 P0000 T01560150
KLNS 292053Z 08012G20KT 6SM -RA BR OVC013 16/16 A3025 RMK AO2 SLP243 P0000 60000 T01560156 53001
KLNS 291953Z 09014KT 5SM -RA BR OVC011 16/16 A3024 RMK AO2 SLP239 P0000 T01610161
KLNS 291853Z 08015G19KT 10SM -RA OVC010 17/16 A3024 RMK AO2 CIG 008V013 SLP238 P0000 T01670161
KLNS 291753Z 09016G22KT 7SM -RA OVC010 17/16 A3025 RMK AO2 CIG 009V013 SLP241 P0000 60021 T01670161 10172 20150 50003
KLNS 291653Z 09016G28KT 10SM -RA OVC012 17/16 A3025 RMK AO2 PK WND 10028/1646 SLP242 P0000 T01720161
KLNS 291553Z 09014G24KT 10SM -RA OVC010 17/16 A3024 RMK AO2 CIG 007V013 SLP240 P0001 T01670161
KLNS 291532Z 09014G25KT 8SM -RA OVC010 16/16 A3025 RMK AO2 CIG 007V013 P0001 T01610161
KLNS 291502Z 09018G23KT 4SM -RA BR BKN009 OVC013 16/16 A3024 RMK AO2 P0001 T01610161
KLNS 291453Z 09016KT 2 1/2SM RA BR BKN009 OVC013 16/16 A3023 RMK AO2 SLP237 P0008 60020 T01610161 50017
KLNS 291446Z 08014KT 2SM RA BR BKN008 OVC013 16/16 A3024 RMK AO2 CIG 006V012 P0007 T01610161
KLNS 291421Z 08013KT 4SM RA BR OVC009 16/16 A3024 RMK AO2 CIG 006V013 P0001 T01560156
KLNS 291353Z 09015KT 3SM RA BR OVC010 16/16 A3024 RMK AO2 CIG 008V012 SLP240 P0008 T01560156
KLNS 291314Z 10013KT 4SM RA BR OVC012 16/16 A3023 RMK AO2 P0003 T01560156
KLNS 291253Z 10015G24KT 10SM -RA OVC011 16/15 A3021 RMK AO2 PK WND 10028/1156 SLP229 P0004 T01560150
KLNS 291153Z 09017G27KT 4SM +RA BR OVC010 15/15 A3018 RMK AO2 PK WND 08027/1146 SLP220 P0013 60040 70052 T01500150 10150 20144 53006
KLNS 291053Z 08015G20KT 10SM -RA OVC010 15/15 A3016 RMK AO2 CIG 007V013 SLP213 P0003 T01500150
KLNS 290953Z 09013G23KT 6SM RA BR BKN011 BKN022 OVC055 15/14 A3015 RMK AO2 SLP208 P0010 T01500144
KLNS 290853Z AUTO 08015G22KT 8SM RA OVC012 14/14 A3016 RMK AO2 SLP213 P0012 60014 T01440144 53007
KLNS 290753Z AUTO 09018G25KT 7SM RA OVC012 14/14 A3016 RMK AO2 PK WND 10026/0718 RAB05 SLP211 P0002 T01440144
KLNS 290653Z AUTO 08013KT 10SM OVC011 15/14 A3014 RMK AO2 RAB0554E50 SLP204 P0000 T01500144
KLNS 290553Z AUTO 07014G19KT 10SM OVC010 15/15 A3014 RMK AO2 RAE51 CIG 006V013 SLP207 P0000 60001 T01500150 10178 20150 50000
KLNS 290504Z AUTO 08012KT 7SM -RA BKN010 OVC015 16/16 A3016 RMK AO2 CIG 008V012 P0000 T01560156
KLNS 290453Z AUTO 09012G24KT 10SM -RA FEW008 BKN015 OVC020 16/15 A3016 RMK AO2 RAB30 SLP212 P0001 T01610150 402170117